Time;durP1;ratioP1;P1;durP2;ratioP2;P2;SDS_P1;SDS_P2;PMS_P1;PMS_P2;Temp;Humidity;BMP_temperature;BMP_pressure;BME280_temperature;BME280_humidity;BME280_pressure;Samples;Min_cycle;Max_cycle;Signal;HPM_P1;HPM_P2
2023/08/16 00:10:22;;;;;;;8.10;6.70;;;;;;;15.11;100.00;102035.53;4973699;28;20046;-76
2023/08/16 00:12:49;;;;;;;7.20;6.43;;;;;;;15.08;100.00;102036.41;4914461;28;20047;-76
2023/08/16 00:15:17;;;;;;;8.80;7.53;;;;;;;15.06;100.00;102029.31;4972927;28;20046;-77
2023/08/16 00:17:44;;;;;;;9.63;6.65;;;;;;;15.04;100.00;102034.63;4988991;28;20412;-76
2023/08/16 00:20:12;;;;;;;7.93;7.13;;;;;;;15.01;100.00;102026.66;4991456;28;20042;-76
2023/08/16 00:22:39;;;;;;;9.23;7.03;;;;;;;15.00;100.00;102023.09;4970479;28;20050;-75
2023/08/16 00:25:07;;;;;;;9.85;7.03;;;;;;;14.99;100.00;102025.78;4972985;28;20039;-76
2023/08/16 00:27:35;;;;;;;12.82;8.35;;;;;;;14.96;100.00;102021.31;4946725;28;20046;-77
2023/08/16 00:30:03;;;;;;;9.57;6.80;;;;;;;14.96;100.00;102031.06;4989705;28;20050;-77
2023/08/16 00:32:31;;;;;;;8.05;6.93;;;;;;;14.95;100.00;102023.97;4970548;28;20042;-75
2023/08/16 00:34:58;;;;;;;7.50;6.72;;;;;;;14.93;100.00;102025.72;4973066;28;20050;-76
2023/08/16 00:37:25;;;;;;;9.40;6.60;;;;;;;14.90;100.00;102031.03;4970993;28;20046;-76
2023/08/16 00:39:53;;;;;;;8.43;7.20;;;;;;;14.89;100.00;102031.91;4971456;28;20042;-76
2023/08/16 00:42:20;;;;;;;8.00;6.63;;;;;;;14.85;100.00;102024.81;4987222;28;20054;-75
2023/08/16 00:44:47;;;;;;;10.48;6.80;;;;;;;14.82;100.00;102029.25;4968197;28;20925;-75
2023/08/16 00:47:16;;;;;;;8.15;6.65;;;;;;;14.79;100.00;102025.69;4988251;28;20054;-76
2023/08/16 00:49:43;;;;;;;9.00;6.45;;;;;;;14.77;100.00;102025.66;4987255;28;20050;-76
2023/08/16 00:52:11;;;;;;;8.75;6.53;;;;;;;14.75;100.00;102018.59;4989086;28;20046;-76
2023/08/16 00:54:39;;;;;;;11.00;6.75;;;;;;;14.74;100.00;102030.06;4986259;28;20660;-76
2023/08/16 00:57:07;;;;;;;11.40;6.88;;;;;;;14.72;100.00;102035.38;4988789;28;20050;-76
2023/08/16 00:59:36;;;;;;;8.50;6.90;;;;;;;14.68;100.00;102030.06;4929361;28;20066;-75
2023/08/16 01:02:03;;;;;;;8.30;6.90;;;;;;;14.67;100.00;102029.16;4972290;28;20404;-75
2023/08/16 01:04:31;;;;;;;7.10;6.40;;;;;;;14.64;100.00;102023.84;4954905;28;20045;-76
2023/08/16 01:06:58;;;;;;;9.20;6.63;;;;;;;14.61;100.00;102023.81;4972903;28;20053;-76
2023/08/16 01:09:26;;;;;;;7.80;6.25;;;;;;;14.60;100.00;102027.34;4970518;28;20058;-76
2023/08/16 01:12:12;;;;;;;8.95;6.45;;;;;;;14.58;100.00;102026.47;4968983;28;20413;-75
2023/08/16 01:15:02;;;;;;;8.32;6.68;;;;;;;14.54;100.00;102020.22;4936320;28;20062;-76
2023/08/16 01:17:30;;;;;;;8.85;6.50;;;;;;;14.53;100.00;102036.13;4969507;28;20435;-76
2023/08/16 01:20:00;;;;;;;9.02;6.22;;;;;;;14.51;100.00;102029.91;4972526;28;20058;-75
2023/08/16 01:22:49;;;;;;;8.38;6.53;;;;;;;14.50;100.00;102041.41;4969627;28;20042;-76
2023/08/16 01:25:32;;;;;;;8.48;7.03;;;;;;;14.48;100.00;102051.13;4975860;28;20503;-76
2023/08/16 01:28:00;;;;;;;11.25;6.50;;;;;;;14.47;100.00;102049.34;4971634;28;20070;-76
2023/08/16 01:30:29;;;;;;;9.38;6.47;;;;;;;14.46;100.00;102044.91;4929055;28;20500;-76
2023/08/16 01:33:05;;;;;;;7.40;6.30;;;;;;;14.43;100.00;102046.66;4971586;28;20054;-76
2023/08/16 01:35:34;;;;;;;10.88;6.38;;;;;;;14.44;100.00;102050.19;4986939;28;20763;-75
2023/08/16 01:38:03;;;;;;;9.18;6.82;;;;;;;14.41;100.00;102048.44;4971574;28;20542;-76
2023/08/16 01:40:34;;;;;;;9.10;6.55;;;;;;;14.40;100.00;102048.41;4969350;28;20424;-75
2023/08/16 01:43:09;;;;;;;7.95;6.05;;;;;;;14.40;100.00;102045.75;4972339;28;20046;-76
2023/08/16 01:45:36;;;;;;;9.93;6.95;;;;;;;14.39;100.00;102044.88;4929920;28;20042;-76
2023/08/16 01:48:05;;;;;;;7.22;6.13;;;;;;;14.39;100.00;102050.19;4989737;28;20073;-76
2023/08/16 01:50:33;;;;;;;9.63;7.40;;;;;;;14.37;100.00;102054.59;4969288;28;20615;-76
2023/08/16 01:53:01;;;;;;;9.18;6.47;;;;;;;14.35;100.00;102053.69;4988476;28;20046;-76
2023/08/16 01:55:28;;;;;;;9.30;6.38;;;;;;;14.33;100.00;102051.91;4984857;28;20519;-76
2023/08/16 01:57:56;;;;;;;7.28;6.57;;;;;;;14.31;100.00;102057.22;4971240;28;20058;-77
2023/08/16 02:00:23;;;;;;;9.68;6.72;;;;;;;14.31;100.00;102048.34;4952322;28;20060;-76
2023/08/16 02:02:51;;;;;;;7.20;6.50;;;;;;;14.29;100.00;102053.66;4994620;28;20043;-75
2023/08/16 02:05:18;;;;;;;8.95;7.35;;;;;;;14.27;100.00;102041.25;4970642;28;20093;-75
2023/08/16 02:07:46;;;;;;;6.78;5.90;;;;;;;14.26;100.00;102044.81;4969388;28;20054;-76
2023/08/16 02:10:13;;;;;;;9.57;7.00;;;;;;;14.25;100.00;102038.59;4971002;28;20054;-76
2023/08/16 02:12:40;;;;;;;8.57;6.88;;;;;;;14.24;100.00;102037.72;4969457;28;20042;-75
2023/08/16 02:15:08;;;;;;;10.45;6.95;;;;;;;14.26;100.00;102044.81;4970997;28;20046;-75
2023/08/16 02:17:36;;;;;;;9.07;6.60;;;;;;;14.27;100.00;102051.84;4910937;28;20052;-76
2023/08/16 02:20:08;;;;;;;7.75;6.90;;;;;;;14.23;100.00;102043.91;4971845;28;20057;-75
2023/08/16 02:22:36;;;;;;;10.45;6.68;;;;;;;14.26;100.00;102047.44;4999846;28;20050;-76
2023/08/16 02:25:11;;;;;;;8.10;6.88;;;;;;;14.26;100.00;102050.97;4971909;28;20046;-76
2023/08/16 02:27:40;;;;;;;8.32;7.28;;;;;;;14.26;100.00;102058.06;4968088;28;20054;-76
2023/08/16 02:30:07;;;;;;;7.63;6.82;;;;;;;14.23;100.00;102045.66;4971283;28;20411;-75
2023/08/16 02:32:36;;;;;;;9.88;6.88;;;;;;;14.24;100.00;102052.75;4929499;28;20051;-76
2023/08/16 02:35:03;;;;;;;9.75;7.55;;;;;;;14.22;100.00;102054.50;4972303;28;20073;-76
2023/08/16 02:37:31;;;;;;;8.52;6.93;;;;;;;14.20;100.00;102049.16;4968889;28;20053;-75
2023/08/16 02:39:59;;;;;;;8.68;7.22;;;;;;;14.19;100.00;102057.97;4971584;28;20519;-76
2023/08/16 02:42:26;;;;;;;10.73;7.75;;;;;;;14.18;100.00;102052.69;4968744;28;20047;-76
2023/08/16 02:44:54;;;;;;;8.45;7.68;;;;;;;14.18;100.00;102050.03;4971113;28;20401;-75
2023/08/16 02:47:21;;;;;;;8.48;7.20;;;;;;;14.16;100.00;102047.38;4932130;28;20058;-75
2023/08/16 02:49:49;;;;;;;8.35;7.30;;;;;;;14.16;100.00;102051.81;4954504;28;20053;-76
2023/08/16 02:52:16;;;;;;;9.60;7.75;;;;;;;14.15;100.00;102053.53;4986695;28;20073;-76
2023/08/16 02:54:44;;;;;;;9.35;7.25;;;;;;;14.16;100.00;102068.59;4969929;28;20050;-76
2023/08/16 02:57:13;;;;;;;10.13;7.82;;;;;;;14.17;100.00;102065.03;4970126;28;20429;-75
2023/08/16 02:59:43;;;;;;;10.05;8.05;;;;;;;14.16;100.00;102057.09;4967971;28;20069;-76
2023/08/16 03:02:10;;;;;;;8.88;7.47;;;;;;;14.15;100.00;102064.16;4929615;28;20405;-76
2023/08/16 03:04:39;;;;;;;8.88;7.97;;;;;;;14.15;100.00;102060.63;4983889;28;20077;-75
2023/08/16 03:07:08;;;;;;;9.98;7.50;;;;;;;14.17;100.00;102066.81;5001519;28;20053;-76
2023/08/16 03:09:36;;;;;;;11.57;8.02;;;;;;;14.15;100.00;102066.78;4999752;28;20077;-75
2023/08/16 03:12:05;;;;;;;10.48;8.13;;;;;;;14.14;100.00;102066.78;4985689;28;20047;-76
2023/08/16 03:14:32;;;;;;;9.23;8.00;;;;;;;14.12;100.00;102057.94;4945242;28;20061;-75
2023/08/16 03:17:00;;;;;;;8.13;7.25;;;;;;;14.09;100.00;102049.97;4924233;28;20035;-75
2023/08/16 03:19:28;;;;;;;12.38;6.75;;;;;;;14.08;100.00;102069.38;4955550;28;20055;-76
2023/08/16 03:21:56;;;;;;;7.97;6.90;;;;;;;14.08;100.00;102058.78;4967291;28;20058;-75
2023/08/16 03:24:26;;;;;;;7.60;6.28;;;;;;;14.07;100.00;102049.97;4965685;28;20062;-75
2023/08/16 03:26:55;;;;;;;7.25;6.55;;;;;;;14.04;100.00;102061.44;4967914;28;20054;-76
2023/08/16 03:29:22;;;;;;;7.35;6.43;;;;;;;14.04;100.00;102065.81;4961752;28;20055;-75
2023/08/16 03:31:50;;;;;;;9.10;6.78;;;;;;;14.02;100.00;102062.28;4950357;28;20062;-76
2023/08/16 03:34:17;;;;;;;8.25;6.75;;;;;;;14.02;100.00;102067.56;4908257;28;20081;-75
2023/08/16 03:36:45;;;;;;;9.13;7.20;;;;;;;14.00;100.00;102072.84;4965712;28;20050;-75
2023/08/16 03:39:13;;;;;;;8.02;7.20;;;;;;;13.99;100.00;102065.78;4967380;28;20047;-76
2023/08/16 03:41:40;;;;;;;11.82;8.00;;;;;;;13.97;100.00;102072.84;4964618;28;20046;-76
2023/08/16 03:44:08;;;;;;;8.18;7.07;;;;;;;13.96;100.00;102072.81;4966791;28;20051;-76
2023/08/16 03:46:35;;;;;;;7.72;6.65;;;;;;;13.93;100.00;102080.75;4963387;28;20057;-76
2023/08/16 03:49:03;;;;;;;9.27;7.05;;;;;;;13.91;100.00;102079.84;4941633;28;20050;-75
2023/08/16 03:51:31;;;;;;;10.23;6.47;;;;;;;13.88;100.00;102079.84;4996288;28;20058;-76
2023/08/16 03:53:59;;;;;;;7.85;6.72;;;;;;;13.87;100.00;102089.53;4966063;28;20488;-75
2023/08/16 03:56:27;;;;;;;7.95;6.40;;;;;;;13.86;100.00;102089.53;4964456;28;20081;-76
2023/08/16 03:58:55;;;;;;;7.40;6.70;;;;;;;13.84;100.00;102101.00;4949649;28;20476;-76
2023/08/16 04:01:22;;;;;;;7.60;6.30;;;;;;;13.83;100.00;102096.56;4964283;28;20073;-76
2023/08/16 04:03:50;;;;;;;13.20;8.38;;;;;;;13.82;100.00;102100.09;4907278;28;20398;-76
2023/08/16 04:06:20;;;;;;;9.48;8.23;;;;;;;13.82;100.00;102104.50;4965541;28;20727;-76
2023/08/16 04:08:48;;;;;;;;;;;;;;;13.81;100.00;102114.19;4965608;28;20059;-75
2023/08/16 04:11:15;;;;;;;10.27;7.78;;;;;;;13.82;100.00;102096.56;4966209;28;19926;-75
2023/08/16 04:13:43;;;;;;;9.77;8.00;;;;;;;13.83;100.00;102101.84;4964122;28;20066;-76
2023/08/16 04:16:10;;;;;;;11.40;7.78;;;;;;;13.83;100.00;102100.97;4966838;28;20047;-75
2023/08/16 04:18:38;;;;;;;10.23;7.75;;;;;;;13.84;100.00;102102.75;4963423;28;20055;-76
2023/08/16 04:21:05;;;;;;;7.78;6.95;;;;;;;13.82;100.00;102102.75;4926539;28;20050;-76
2023/08/16 04:23:33;;;;;;;9.80;7.32;;;;;;;13.83;100.00;102114.22;4946775;28;20058;-76
2023/08/16 04:26:01;;;;;;;8.93;7.13;;;;;;;13.81;100.00;102102.72;4968194;28;20065;-75
2023/08/16 04:28:31;;;;;;;8.13;6.77;;;;;;;13.81;100.00;102118.63;4979152;28;20047;-76
2023/08/16 04:31:00;;;;;;;9.98;7.78;;;;;;;13.80;100.00;102116.84;4998540;28;20051;-75
2023/08/16 04:33:27;;;;;;;10.82;8.13;;;;;;;13.79;100.00;102121.25;4981901;28;20366;-76
2023/08/16 04:35:56;;;;;;;7.95;7.22;;;;;;;13.78;100.00;102129.16;4956889;28;20054;-76
2023/08/16 04:38:24;;;;;;;11.18;7.82;;;;;;;13.76;100.00;102122.97;4980324;28;20062;-75
2023/08/16 04:40:53;;;;;;;8.18;7.18;;;;;;;13.77;100.00;102130.94;4981834;28;20397;-76
2023/08/16 04:43:20;;;;;;;12.07;7.32;;;;;;;13.79;100.00;102130.97;4980569;28;20050;-77
2023/08/16 04:45:48;;;;;;;11.55;7.93;;;;;;;13.81;100.00;102135.38;4934012;28;20059;-76
2023/08/16 04:48:16;;;;;;;9.02;7.60;;;;;;;13.85;100.00;102131.00;4981087;28;20063;-76
2023/08/16 04:50:44;;;;;;;10.82;8.48;;;;;;;13.89;100.00;102132.81;4923947;28;20051;-76
2023/08/16 04:53:12;;;;;;;8.43;7.57;;;;;;;13.97;100.00;102130.25;4965650;28;20050;-75
2023/08/16 04:55:41;;;;;;;9.45;7.65;;;;;;;14.08;100.00;102131.22;4963145;28;20058;-75
2023/08/16 04:58:10;;;;;;;8.98;7.28;;;;;;;14.15;100.00;102129.53;4981983;28;20413;-76
2023/08/16 05:00:44;;;;;;;10.10;6.97;;;;;;;14.21;100.00;102125.19;4937626;28;20051;-76
2023/08/16 05:03:11;;;;;;;8.18;7.38;;;;;;;14.28;100.00;102127.88;4952964;28;20046;-75
2023/08/16 05:05:39;;;;;;;10.50;7.18;;;;;;;14.34;100.00;102128.81;4928523;28;20061;-77
2023/08/16 05:08:08;;;;;;;10.57;7.88;;;;;;;14.48;100.00;102135.97;4968997;28;20063;-76
2023/08/16 05:10:36;;;;;;;7.30;6.57;;;;;;;14.59;100.00;102137.91;4966008;28;20467;-76
2023/08/16 05:13:03;;;;;;;7.88;6.95;;;;;;;14.73;100.00;102130.00;4952888;28;20429;-76
2023/08/16 05:15:31;;;;;;;9.60;6.82;;;;;;;14.81;100.00;102138.03;4966221;28;20505;-75
2023/08/16 05:17:58;;;;;;;12.15;6.65;;;;;;;14.89;100.00;102132.75;4969899;28;20042;-76
2023/08/16 05:20:26;;;;;;;7.38;6.70;;;;;;;14.96;100.00;102137.22;4939449;28;20066;-76
2023/08/16 05:22:53;;;;;;;7.50;6.60;;;;;;;15.00;100.00;102137.25;4961126;28;20047;-76
2023/08/16 05:25:21;;;;;;;7.28;6.50;;;;;;;15.05;100.00;102139.03;4967549;28;20043;-76
2023/08/16 05:27:48;;;;;;;11.48;7.88;;;;;;;15.09;100.00;102141.72;4966931;28;20054;-76
2023/08/16 05:30:15;;;;;;;7.07;6.35;;;;;;;15.13;100.00;102142.63;4968113;28;20427;-76
2023/08/16 05:32:43;;;;;;;7.18;6.38;;;;;;;15.18;100.00;102139.13;4967163;28;20050;-76
2023/08/16 05:35:10;;;;;;;8.85;7.07;;;;;;;15.24;100.00;102146.22;4968755;28;20066;-76
2023/08/16 05:37:37;;;;;;;11.00;6.18;;;;;;;15.27;100.00;102145.34;4923861;28;20054;-76
2023/08/16 05:40:05;;;;;;;9.63;7.65;;;;;;;15.30;100.00;102143.59;4984171;28;20050;-76
2023/08/16 05:42:33;;;;;;;8.10;7.30;;;;;;;15.36;100.00;102151.56;4965399;28;20240;-76
2023/08/16 05:45:00;;;;;;;10.20;7.65;;;;;;;15.43;100.00;102147.19;4949054;28;20092;-76
2023/08/16 05:47:28;;;;;;;10.00;7.28;;;;;;;15.51;100.00;102152.53;4970901;28;20053;-76
2023/08/16 05:49:56;;;;;;;10.98;9.73;;;;;;;15.59;100.00;102154.34;4969701;28;20504;-76
2023/08/16 05:52:24;;;;;;;10.43;8.25;;;;;;;15.69;100.00;102164.97;4957461;28;20054;-76
2023/08/16 05:54:51;;;;;;;8.82;7.93;;;;;;;15.78;100.00;102163.28;4955409;28;20047;-76
2023/08/16 05:57:19;;;;;;;8.88;7.43;;;;;;;15.88;100.00;102160.63;4967098;28;20059;-76
2023/08/16 05:59:46;;;;;;;11.20;8.05;;;;;;;15.97;100.00;102160.63;4966121;28;20068;-76
2023/08/16 06:02:13;;;;;;;7.97;7.28;;;;;;;16.10;100.00;102151.78;4967498;28;20075;-75
2023/08/16 06:04:40;;;;;;;9.88;8.30;;;;;;;16.30;100.00;102150.94;4965252;28;20046;-76
2023/08/16 06:07:07;;;;;;;11.75;7.43;;;;;;;16.57;100.00;102163.34;4967782;28;20046;-76
2023/08/16 06:09:35;;;;;;;8.40;6.90;;;;;;;17.05;100.00;102161.53;4924188;28;20051;-76
2023/08/16 06:12:02;;;;;;;8.10;7.03;;;;;;;17.28;100.00;102169.44;4983530;28;20066;-76
2023/08/16 06:14:30;;;;;;;8.75;5.90;;;;;;;17.38;100.00;102169.41;4964729;28;20047;-76
2023/08/16 06:16:57;;;;;;;6.82;6.10;;;;;;;17.43;100.00;102181.81;4955073;28;20052;-75
2023/08/16 06:19:24;;;;;;;8.32;6.53;;;;;;;17.48;100.00;102181.78;4965234;28;20059;-75
2023/08/16 06:21:52;;;;;;;9.00;6.43;;;;;;;17.50;100.00;102180.91;4967245;28;20051;-75
2023/08/16 06:24:20;;;;;;;8.63;7.43;;;;;;;17.49;100.00;102186.22;4930903;28;20054;-77
2023/08/16 06:26:47;;;;;;;10.68;6.63;;;;;;;17.46;100.00;102189.78;4972780;28;20057;-75
2023/08/16 06:29:14;;;;;;;8.07;6.80;;;;;;;17.45;100.00;102193.34;4966608;28;20059;-75
2023/08/16 06:31:42;;;;;;;12.52;7.97;;;;;;;17.47;100.00;102188.91;4964796;28;20051;-76
2023/08/16 06:34:09;;;;;;;7.03;6.15;;;;;;;17.63;100.00;102195.03;4966653;28;20077;-76
2023/08/16 06:36:36;;;;;;;8.43;6.32;;;;;;;17.80;100.00;102191.41;4963985;28;20047;-75
2023/08/16 06:39:04;;;;;;;9.25;6.45;;;;;;;18.04;100.00;102190.41;4922375;28;20050;-76
2023/08/16 06:41:31;;;;;;;7.90;6.65;;;;;;;18.25;100.00;102187.59;4995313;28;20058;-76
2023/08/16 06:43:58;;;;;;;7.20;6.47;;;;;;;18.35;100.00;102195.53;4982792;28;20049;-76
2023/08/16 06:46:26;;;;;;;8.05;5.45;;;;;;;18.43;100.00;102194.56;4948651;28;20058;-75
2023/08/16 06:48:53;;;;;;;7.28;5.65;;;;;;;18.45;100.00;102197.22;4966364;28;20042;-76
2023/08/16 06:51:21;;;;;;;9.93;5.82;;;;;;;18.43;100.00;102199.91;4981694;28;20500;-75
2023/08/16 06:53:50;;;;;;;6.72;6.10;;;;;;;18.41;100.00;102195.47;4953605;28;20051;-75
2023/08/16 06:56:18;;;;;;;10.32;5.97;;;;;;;18.35;100.00;102196.41;4981709;28;20492;-75
2023/08/16 06:58:45;;;;;;;9.50;5.25;;;;;;;18.31;100.00;102208.88;4966677;28;20050;-76
2023/08/16 07:01:12;;;;;;;7.00;6.20;;;;;;;18.30;100.00;102208.91;4966923;28;20054;-76
2023/08/16 07:03:40;;;;;;;8.40;3.95;;;;;;;18.35;100.00;102211.53;4966015;28;20050;-76
2023/08/16 07:06:07;;;;;;;4.72;3.50;;;;;;;18.41;100.00;102208.81;4966568;28;20042;-75
2023/08/16 07:08:35;;;;;;;4.60;3.53;;;;;;;18.47;100.00;102208.78;4963628;28;20058;-75
2023/08/16 07:11:02;;;;;;;8.93;4.28;;;;;;;18.54;100.00;102218.50;4925161;28;20043;-75
2023/08/16 07:13:30;;;;;;;4.88;3.83;;;;;;;18.63;100.00;102223.75;4963821;28;20058;-75
2023/08/16 07:15:57;;;;;;;5.57;2.78;;;;;;;18.70;100.00;102222.81;4968289;28;20105;-75
2023/08/16 07:18:24;;;;;;;5.85;3.78;;;;;;;18.79;100.00;102219.19;4948639;28;20054;-75
2023/08/16 07:20:52;;;;;;;6.47;4.57;;;;;;;18.86;100.00;102214.69;4966386;28;20058;-75
2023/08/16 07:23:19;;;;;;;8.52;4.03;;;;;;;18.95;100.00;102225.28;4965239;28;20055;-75
2023/08/16 07:25:46;;;;;;;5.35;3.20;;;;;;;19.01;100.00;102227.00;4922289;28;20050;-77
2023/08/16 07:28:14;;;;;;;8.45;4.95;;;;;;;19.15;100.00;102226.84;4947102;28;20503;-75
2023/08/16 07:30:41;;;;;;;5.40;2.00;;;;;;;19.22;100.00;102228.56;4963146;28;20072;-75
2023/08/16 07:33:09;;;;;;;6.47;2.60;;;;;;;19.23;100.00;102223.22;4966366;28;20057;-75
2023/08/16 07:35:36;;;;;;;2.97;1.95;;;;;;;19.24;100.00;102224.09;4962890;28;20070;-76
2023/08/16 07:38:04;;;;;;;3.55;1.75;;;;;;;19.27;100.00;102224.94;4998427;28;20039;-76
2023/08/16 07:40:31;;;;;;;2.97;2.03;;;;;;;19.33;100.00;102229.34;4995534;28;20058;-75
2023/08/16 07:42:59;;;;;;;4.15;2.17;;;;;;;19.40;100.00;102232.84;4942554;28;20389;-75
2023/08/16 07:45:26;;;;;;;2.53;1.42;;;;;;;19.38;100.00;102231.97;4964319;28;20038;-75
2023/08/16 07:47:54;;;;;;;3.90;1.80;;;;;;;19.39;100.00;102229.25;4966753;28;20058;-75
2023/08/16 07:50:21;;;;;;;4.43;1.60;;;;;;;19.42;100.00;102239.03;4980958;28;20049;-76
2023/08/16 07:52:49;;;;;;;3.33;1.52;;;;;;;19.40;100.00;102243.53;4997298;28;20062;-75
2023/08/16 07:55:16;;;;;;;6.38;1.38;;;;;;;19.34;100.00;102243.56;4981487;28;20053;-76
2023/08/16 07:57:45;;;;;;;3.60;1.48;;;;;;;19.25;100.00;102244.59;4948666;28;20842;-76
2023/08/16 08:00:13;;;;;;;1.20;1.10;;;;;;;19.20;100.00;102243.75;4963087;28;20077;-75
2023/08/16 08:02:40;;;;;;;2.83;1.30;;;;;;;19.17;100.00;102244.66;4963941;28;20059;-75
2023/08/16 08:05:26;;;;;;;5.15;1.20;;;;;;;19.15;100.00;102253.56;4964781;28;20047;-75
2023/08/16 08:07:54;;;;;;;3.08;1.35;;;;;;;19.13;100.00;102255.38;4967151;28;20058;-75
2023/08/16 08:10:21;;;;;;;1.67;1.17;;;;;;;19.13;100.00;102258.06;4964783;28;20062;-75
2023/08/16 08:12:49;;;;;;;3.10;1.08;;;;;;;19.12;100.00;102256.28;4922080;28;20051;-76
2023/08/16 08:15:16;;;;;;;2.60;1.30;;;;;;;19.12;100.00;102264.31;4983146;28;20048;-75
2023/08/16 08:17:44;;;;;;;2.90;1.60;;;;;;;19.06;100.00;102266.13;4993355;28;20059;-75
2023/08/16 08:20:14;;;;;;;3.00;1.40;;;;;;;19.03;100.00;102263.47;4966120;28;20405;-76
2023/08/16 08:22:42;;;;;;;2.20;1.15;;;;;;;19.13;100.00;102268.75;4965638;28;20054;-76
2023/08/16 08:25:09;;;;;;;1.45;1.05;;;;;;;19.26;100.00;102273.06;4965829;28;20511;-76
2023/08/16 08:27:36;;;;;;;1.38;1.17;;;;;;;19.38;100.00;102274.75;4919754;28;20062;-76
2023/08/16 08:30:04;;;;;;;3.55;1.50;;;;;;;19.45;100.00;102271.97;4965036;28;20623;-75
2023/08/16 08:32:32;;;;;;;7.25;1.63;;;;;;;19.45;100.00;102280.00;4947843;28;20475;-76
2023/08/16 08:34:59;;;;;;;5.35;1.42;;;;;;;19.35;100.00;102290.78;4950623;28;20050;-76
2023/08/16 08:37:27;;;;;;;3.30;1.23;;;;;;;19.25;100.00;102285.53;4967672;28;20055;-76
2023/08/16 08:39:54;;;;;;;4.47;1.08;;;;;;;19.22;100.00;102288.22;4969561;28;20043;-75
2023/08/16 08:42:22;;;;;;;1.30;1.10;;;;;;;19.23;100.00;102295.38;4984153;28;20051;-75
2023/08/16 08:44:51;;;;;;;5.45;1.42;;;;;;;19.31;100.00;102297.09;4930711;28;20547;-75
2023/08/16 08:47:19;;;;;;;3.53;1.30;;;;;;;19.37;100.00;102305.91;5000412;28;20051;-75
2023/08/16 08:49:48;;;;;;;3.08;1.20;;;;;;;19.42;100.00;102293.38;5001075;28;20086;-75
2023/08/16 08:52:17;;;;;;;2.05;1.10;;;;;;;19.44;100.00;102299.59;4969856;28;20050;-75
2023/08/16 08:54:46;;;;;;;3.33;1.20;;;;;;;19.44;100.00;102302.28;4969136;28;20057;-75
2023/08/16 08:57:15;;;;;;;2.88;1.27;;;;;;;19.41;100.00;102302.31;4971681;28;20382;-75
2023/08/16 08:59:49;;;;;;;2.58;1.20;;;;;;;19.43;100.00;102304.94;4916146;28;20055;-75
2023/08/16 09:02:20;;;;;;;4.22;1.38;;;;;;;19.38;100.00;102298.78;4996741;28;20051;-75
2023/08/16 09:04:50;;;;;;;4.50;1.30;;;;;;;19.39;100.00;102301.44;4967881;28;20056;-75
2023/08/16 09:07:19;;;;;;;7.75;1.42;;;;;;;19.43;100.00;102303.19;4938878;28;20448;-75
2023/08/16 09:09:48;;;;;;;3.85;1.00;;;;;;;19.53;100.00;102306.66;4967542;28;20047;-75
2023/08/16 09:12:15;;;;;;;4.65;1.38;;;;;;;19.62;100.00;102302.97;4969540;28;20439;-75
2023/08/16 09:14:43;;;;;;;5.63;1.60;;;;;;;19.66;100.00;102302.94;4934737;28;20451;-76
2023/08/16 09:17:10;;;;;;;3.97;1.10;;;;;;;19.72;100.00;102301.09;4973162;28;20063;-76
2023/08/16 09:19:45;;;;;;;2.08;1.27;;;;;;;19.79;100.00;102306.38;4950338;28;20058;-76
2023/08/16 09:22:13;;;;;;;5.32;1.92;;;;;;;19.79;100.00;102303.72;4968810;28;20055;-76
2023/08/16 09:24:43;;;;;;;4.78;1.45;;;;;;;19.81;100.00;102311.69;4982456;28;20077;-77
2023/08/16 09:27:11;;;;;;;4.40;1.02;;;;;;;19.77;100.00;102299.25;4969810;28;20058;-76
2023/08/16 09:29:39;;;;;;;6.57;1.60;;;;;;;19.77;100.00;102307.28;4932398;28;20500;-77
2023/08/16 09:32:10;;;;;;;2.42;1.20;;;;;;;19.76;100.00;102314.44;4971517;28;20054;-75
2023/08/16 09:34:40;;;;;;;2.67;1.05;;;;;;;19.78;100.00;102309.94;4981537;28;20066;-76
2023/08/16 09:37:22;;;;;;;2.53;1.30;;;;;;;19.81;100.00;102304.56;4967772;28;20057;-76
2023/08/16 09:39:57;;;;;;;1.70;0.90;;;;;;;19.84;100.00;102307.19;4968173;28;20058;-75
2023/08/16 09:42:32;;;;;;;2.05;1.27;;;;;;;19.86;100.00;102304.50;4968008;28;20051;-75
2023/08/16 09:45:00;;;;;;;2.05;1.02;;;;;;;19.92;100.00;102303.53;4940548;28;20035;-76
2023/08/16 09:47:29;;;;;;;4.10;1.27;;;;;;;19.98;100.00;102304.38;4966667;28;20051;-75
2023/08/16 09:50:00;;;;;;;4.43;1.25;;;;;;;20.05;100.00;102299.78;4968833;28;20519;-77
2023/08/16 09:52:28;;;;;;;3.50;1.00;;;;;;;20.05;100.00;102316.72;4998169;28;20055;-76
2023/08/16 09:54:57;;;;;;;4.78;2.00;;;;;;;20.08;100.00;102307.78;4984201;28;20053;-76
2023/08/16 09:57:25;;;;;;;2.83;1.00;;;;;;;20.15;100.00;102308.59;4954950;28;20050;-76
2023/08/16 09:59:55;;;;;;;3.80;1.83;;;;;;;20.24;100.00;102303.09;4959555;28;20042;-76
2023/08/16 10:02:24;;;;;;;5.03;1.30;;;;;;;20.33;100.00;102302.97;4977750;28;20471;-75
2023/08/16 10:04:55;;;;;;;3.67;1.30;;;;;;;20.48;100.00;102296.50;4967271;28;20051;-75
2023/08/16 10:07:26;;;;;;;3.70;1.10;;;;;;;20.66;100.00;102300.72;4935064;28;20062;-75
2023/08/16 10:09:54;;;;;;;5.18;1.33;;;;;;;20.78;100.00;102295.19;4967591;28;20047;-75
2023/08/16 10:12:23;;;;;;;2.95;1.50;;;;;;;20.87;100.00;102310.22;4966379;28;20081;-75
2023/08/16 10:14:51;;;;;;;3.15;1.38;;;;;;;20.94;100.00;102301.16;4967354;28;20061;-75
2023/08/16 10:17:21;;;;;;;3.40;1.30;;;;;;;21.02;100.00;102299.25;4923382;28;20069;-75
2023/08/16 10:19:57;;;;;;;1.83;1.00;;;;;;;21.07;100.00;102298.28;4968148;28;20050;-76
2023/08/16 10:22:30;;;;;;;2.90;1.20;;;;;;;21.19;100.00;102296.25;4967360;28;20055;-75
2023/08/16 10:25:10;;;;;;;4.53;1.40;;;;;;;21.30;100.00;102298.72;4969019;28;20047;-75
2023/08/16 10:27:43;;;;;;;7.78;1.00;;;;;;;21.40;100.00;102297.66;4965640;28;20047;-75
2023/08/16 10:30:22;;;;;;;1.25;0.82;;;;;;;21.54;100.00;102293.84;4983669;28;20047;-75
2023/08/16 10:32:57;;;;;;;3.55;0.80;;;;;;;21.59;100.00;102289.28;4923201;28;20043;-75
2023/08/16 10:35:25;;;;;;;4.03;0.80;;;;;;;21.64;100.00;102284.69;4997098;28;20539;-75
2023/08/16 10:37:53;;;;;;;3.47;0.93;;;;;;;21.66;100.00;102288.22;4983813;28;20043;-76
2023/08/16 10:40:21;;;;;;;2.17;1.10;;;;;;;21.67;100.00;102297.19;4966656;28;20055;-75
2023/08/16 10:42:59;;;;;;;3.70;1.17;;;;;;;21.65;100.00;102283.78;4967305;28;20432;-76
2023/08/16 10:45:34;;;;;;;2.25;1.00;;;;;;;21.63;100.00;102291.00;4965720;28;20575;-77
2023/08/16 10:48:15;;;;;;;2.85;0.98;;;;;;;21.53;100.00;102284.94;4926840;28;20077;-76
2023/08/16 10:50:42;;;;;;;2.22;1.05;;;;;;;21.58;100.00;102287.50;4966362;28;20054;-76
2023/08/16 10:53:12;;;;;;;3.95;1.13;;;;;;;21.62;100.00;102283.84;4967149;28;20420;-77
2023/08/16 10:55:40;;;;;;;2.30;0.98;;;;;;;21.66;100.00;102280.19;4963210;28;20679;-75
2023/08/16 10:58:19;;;;;;;1.92;0.98;;;;;;;21.77;100.00;102288.03;4966088;28;20058;-76
2023/08/16 11:00:59;;;;;;;4.68;1.20;;;;;;;21.77;100.00;102285.34;4966225;28;20054;-75
2023/08/16 11:03:34;;;;;;;3.13;1.10;;;;;;;21.82;100.00;102283.44;4922479;28;20058;-76
2023/08/16 11:06:10;;;;;;;2.63;1.00;;;;;;;21.91;100.00;102287.72;4983310;28;20042;-76
2023/08/16 11:08:45;;;;;;;6.15;1.15;;;;;;;21.96;100.00;102288.50;4962881;28;20061;-76
2023/08/16 11:11:13;;;;;;;1.48;1.00;;;;;;;22.01;100.00;102289.31;4966878;28;20046;-77
2023/08/16 11:13:42;;;;;;;2.42;1.15;;;;;;;22.06;100.00;102289.19;4963724;28;20047;-76
2023/08/16 11:16:13;;;;;;;3.35;1.30;;;;;;;22.15;100.00;102289.00;4967217;28;20050;-77
2023/08/16 11:18:41;;;;;;;3.13;1.40;;;;;;;22.24;100.00;102287.91;4921075;28;20564;-76
2023/08/16 11:21:13;;;;;;;2.60;0.98;;;;;;;22.28;100.00;102284.25;4967807;28;20046;-76
2023/08/16 11:23:42;;;;;;;5.35;1.42;;;;;;;22.32;100.00;102291.31;4953198;28;20420;-76
2023/08/16 11:26:11;;;;;;;3.47;0.95;;;;;;;22.37;100.00;102289.44;4963795;28;20047;-75
2023/08/16 11:28:40;;;;;;;4.05;1.45;;;;;;;22.41;100.00;102301.84;4966873;28;20055;-76
2023/08/16 11:31:08;;;;;;;1.77;1.13;;;;;;;22.49;100.00;102299.88;4949666;28;20054;-76
2023/08/16 11:33:39;;;;;;;3.15;1.13;;;;;;;22.52;100.00;102294.44;4911569;28;20045;-76